sensor_id;sensor_type;location;lat;lon;timestamp;pressure;altitude;pressure_sealevel;temperature;humidity
80892;BME280;70343;51.530;5.050;2023-11-22T00:01:04;102723.56;;;4.81;100.00
80892;BME280;70343;51.530;5.050;2023-11-22T00:03:30;102718.16;;;4.84;100.00
80892;BME280;70343;51.530;5.050;2023-11-22T00:05:57;102717.88;;;4.76;100.00
80892;BME280;70343;51.530;5.050;2023-11-22T00:08:22;102710.09;;;4.76;100.00
80892;BME280;70343;51.530;5.050;2023-11-22T00:10:48;102715.09;;;4.79;100.00
80892;BME280;70343;51.530;5.050;2023-11-22T00:13:13;102711.78;;;4.65;100.00
80892;BME280;70343;51.530;5.050;2023-11-22T00:15:39;102720.97;;;4.69;100.00
80892;BME280;70343;51.530;5.050;2023-11-22T00:18:04;102726.25;;;4.67;100.00
80892;BME280;70343;51.530;5.050;2023-11-22T00:20:30;102719.44;;;4.66;100.00
80892;BME280;70343;51.530;5.050;2023-11-22T00:22:56;102716.97;;;4.52;100.00
80892;BME280;70343;51.530;5.050;2023-11-22T00:25:22;102718.19;;;4.59;100.00
80892;BME280;70343;51.530;5.050;2023-11-22T00:27:48;102719.03;;;4.60;100.00
80892;BME280;70343;51.530;5.050;2023-11-22T00:30:14;102723.78;;;4.53;100.00
80892;BME280;70343;51.530;5.050;2023-11-22T00:32:40;102723.78;;;4.53;100.00
80892;BME280;70343;51.530;5.050;2023-11-22T00:35:08;102730.59;;;4.54;100.00
80892;BME280;70343;51.530;5.050;2023-11-22T00:37:35;102731.94;;;4.47;100.00
80892;BME280;70343;51.530;5.050;2023-11-22T00:40:02;102735.47;;;4.46;100.00
80892;BME280;70343;51.530;5.050;2023-11-22T00:42:36;102735.75;;;4.41;100.00
80892;BME280;70343;51.530;5.050;2023-11-22T00:45:04;102733.59;;;4.48;100.00
80892;BME280;70343;51.530;5.050;2023-11-22T00:47:34;102734.50;;;4.47;100.00
80892;BME280;70343;51.530;5.050;2023-11-22T00:50:00;102746.72;;;4.45;100.00
80892;BME280;70343;51.530;5.050;2023-11-22T00:52:26;102737.50;;;4.41;100.00
80892;BME280;70343;51.530;5.050;2023-11-22T00:54:52;102738.97;;;4.32;100.00
80892;BME280;70343;51.530;5.050;2023-11-22T00:57:18;102737.22;;;4.33;100.00
80892;BME280;70343;51.530;5.050;2023-11-22T00:59:44;102736.38;;;4.32;100.00
80892;BME280;70343;51.530;5.050;2023-11-22T01:02:09;102734.53;;;4.34;100.00
80892;BME280;70343;51.530;5.050;2023-11-22T01:04:35;102733.47;;;4.37;100.00
80892;BME280;70343;51.530;5.050;2023-11-22T01:07:02;102735.84;;;4.27;100.00
80892;BME280;70343;51.530;5.050;2023-11-22T01:09:29;102736.47;;;4.18;100.00
80892;BME280;70343;51.530;5.050;2023-11-22T01:11:57;102736.34;;;4.20;100.00
80892;BME280;70343;51.530;5.050;2023-11-22T01:14:22;102741.63;;;4.18;100.00
80892;BME280;70343;51.530;5.050;2023-11-22T01:16:48;102749.16;;;4.09;100.00
80892;BME280;70343;51.530;5.050;2023-11-22T01:19:15;102760.38;;;4.08;100.00
80892;BME280;70343;51.530;5.050;2023-11-22T01:21:40;102785.28;;;4.09;100.00
80892;BME280;70343;51.530;5.050;2023-11-22T01:24:06;102790.44;;;4.09;100.00
80892;BME280;70343;51.530;5.050;2023-11-22T01:26:31;102793.94;;;4.08;100.00
80892;BME280;70343;51.530;5.050;2023-11-22T01:28:57;102799.72;;;3.99;100.00
80892;BME280;70343;51.530;5.050;2023-11-22T01:31:23;102802.00;;;4.03;100.00
80892;BME280;70343;51.530;5.050;2023-11-22T01:33:48;102795.16;;;4.02;100.00
80892;BME280;70343;51.530;5.050;2023-11-22T01:36:14;102801.28;;;4.01;100.00
80892;BME280;70343;51.530;5.050;2023-11-22T01:38:42;102817.88;;;3.97;100.00
80892;BME280;70343;51.530;5.050;2023-11-22T01:41:09;102827.75;;;3.91;100.00
80892;BME280;70343;51.530;5.050;2023-11-22T01:43:38;102825.72;;;3.96;100.00
80892;BME280;70343;51.530;5.050;2023-11-22T01:46:06;102825.91;;;3.93;100.00
80892;BME280;70343;51.530;5.050;2023-11-22T01:48:32;102830.81;;;3.83;100.00
80892;BME280;70343;51.530;5.050;2023-11-22T01:50:58;102827.03;;;3.89;100.00
80892;BME280;70343;51.530;5.050;2023-11-22T01:53:24;102816.81;;;3.87;100.00
80892;BME280;70343;51.530;5.050;2023-11-22T01:55:50;102816.81;;;3.87;100.00
80892;BME280;70343;51.530;5.050;2023-11-22T01:58:16;102822.97;;;3.85;100.00
80892;BME280;70343;51.530;5.050;2023-11-22T02:00:47;102816.34;;;3.81;100.00
80892;BME280;70343;51.530;5.050;2023-11-22T02:03:14;102820.03;;;3.77;100.00
80892;BME280;70343;51.530;5.050;2023-11-22T02:05:41;102818.59;;;3.73;100.00
80892;BME280;70343;51.530;5.050;2023-11-22T02:08:09;102823.75;;;3.73;100.00
80892;BME280;70343;51.530;5.050;2023-11-22T02:10:36;102818.59;;;3.73;100.00
80892;BME280;70343;51.530;5.050;2023-11-22T02:13:05;102809.19;;;3.72;100.00
80892;BME280;70343;51.530;5.050;2023-11-22T02:15:34;102817.94;;;3.69;100.00
80892;BME280;70343;51.530;5.050;2023-11-22T02:17:59;102810.69;;;3.61;100.00
80892;BME280;70343;51.530;5.050;2023-11-22T02:20:25;102807.22;;;3.63;100.00
80892;BME280;70343;51.530;5.050;2023-11-22T02:22:51;102811.44;;;3.63;100.00
80892;BME280;70343;51.530;5.050;2023-11-22T02:25:18;102818.44;;;3.61;100.00
80892;BME280;70343;51.530;5.050;2023-11-22T02:27:44;102821.41;;;3.55;100.00
80892;BME280;70343;51.530;5.050;2023-11-22T02:30:10;102828.28;;;3.55;100.00
80892;BME280;70343;51.530;5.050;2023-11-22T02:32:36;102827.59;;;3.53;100.00
80892;BME280;70343;51.530;5.050;2023-11-22T02:35:02;102825.09;;;3.51;100.00
80892;BME280;70343;51.530;5.050;2023-11-22T02:37:32;102828.59;;;3.50;100.00
80892;BME280;70343;51.530;5.050;2023-11-22T02:40:18;102832.09;;;3.49;100.00
80892;BME280;70343;51.530;5.050;2023-11-22T02:42:49;102828.78;;;3.47;100.00
80892;BME280;70343;51.530;5.050;2023-11-22T02:45:18;102828.78;;;3.47;100.00
80892;BME280;70343;51.530;5.050;2023-11-22T02:47:44;102827.13;;;3.46;100.00
80892;BME280;70343;51.530;5.050;2023-11-22T02:50:15;102816.09;;;3.44;100.00
80892;BME280;70343;51.530;5.050;2023-11-22T02:52:40;102823.81;;;3.44;100.00
80892;BME280;70343;51.530;5.050;2023-11-22T02:55:07;102827.31;;;3.43;100.00
80892;BME280;70343;51.530;5.050;2023-11-22T02:57:38;102817.19;;;3.40;100.00
80892;BME280;70343;51.530;5.050;2023-11-22T03:00:05;102816.34;;;3.40;100.00
80892;BME280;70343;51.530;5.050;2023-11-22T03:02:32;102824.19;;;3.38;100.00
80892;BME280;70343;51.530;5.050;2023-11-22T03:04:57;102826.22;;;3.33;100.00
80892;BME280;70343;51.530;5.050;2023-11-22T03:07:26;102828.16;;;3.30;100.00
80892;BME280;70343;51.530;5.050;2023-11-22T03:09:52;102820.78;;;3.24;100.00
80892;BME280;70343;51.530;5.050;2023-11-22T03:12:18;102820.25;;;3.33;100.00
80892;BME280;70343;51.530;5.050;2023-11-22T03:14:48;102815.63;;;3.24;100.00
80892;BME280;70343;51.530;5.050;2023-11-22T03:17:17;102819.13;;;3.23;100.00
80892;BME280;70343;51.530;5.050;2023-11-22T03:19:43;102818.50;;;3.19;100.00
80892;BME280;70343;51.530;5.050;2023-11-22T03:22:10;102807.34;;;3.19;100.00
80892;BME280;70343;51.530;5.050;2023-11-22T03:24:35;102812.41;;;3.06;100.00
80892;BME280;70343;51.530;5.050;2023-11-22T03:27:02;102825.88;;;3.11;100.00
80892;BME280;70343;51.530;5.050;2023-11-22T03:29:28;102832.50;;;3.15;100.00
80892;BME280;70343;51.530;5.050;2023-11-22T03:31:54;102836.16;;;3.11;100.00
80892;BME280;70343;51.530;5.050;2023-11-22T03:34:20;102840.38;;;3.12;100.00
80892;BME280;70343;51.530;5.050;2023-11-22T03:36:46;102842.41;;;2.93;100.00
80892;BME280;70343;51.530;5.050;2023-11-22T03:39:12;102846.47;;;2.97;100.00
80892;BME280;70343;51.530;5.050;2023-11-22T03:41:40;102845.56;;;2.98;100.00
80892;BME280;70343;51.530;5.050;2023-11-22T03:44:06;102854.38;;;2.94;100.00
80892;BME280;70343;51.530;5.050;2023-11-22T03:46:38;102856.97;;;2.94;100.00
80892;BME280;70343;51.530;5.050;2023-11-22T03:49:04;102864.31;;;2.86;100.00
80892;BME280;70343;51.530;5.050;2023-11-22T03:51:32;102878.84;;;2.87;100.00
80892;BME280;70343;51.530;5.050;2023-11-22T03:53:58;102888.41;;;2.85;100.00
80892;BME280;70343;51.530;5.050;2023-11-22T03:56:24;102897.06;;;2.84;100.00
80892;BME280;70343;51.530;5.050;2023-11-22T03:58:49;102902.31;;;2.83;100.00
80892;BME280;70343;51.530;5.050;2023-11-22T04:01:15;102913.25;;;2.86;100.00
80892;BME280;70343;51.530;5.050;2023-11-22T04:03:42;102911.13;;;2.79;100.00
80892;BME280;70343;51.530;5.050;2023-11-22T04:06:07;102914.91;;;2.87;100.00
80892;BME280;70343;51.530;5.050;2023-11-22T04:08:33;102915.25;;;2.81;100.00
80892;BME280;70343;51.530;5.050;2023-11-22T04:10:59;102915.25;;;2.81;100.00
80892;BME280;70343;51.530;5.050;2023-11-22T04:13:24;102912.47;;;2.70;100.00
80892;BME280;70343;51.530;5.050;2023-11-22T04:15:50;102911.81;;;2.66;100.00
80892;BME280;70343;51.530;5.050;2023-11-22T04:18:16;102911.72;;;2.68;100.00
80892;BME280;70343;51.530;5.050;2023-11-22T04:20:41;102916.22;;;2.64;100.00
80892;BME280;70343;51.530;5.050;2023-11-22T04:23:07;102913.47;;;2.67;100.00
80892;BME280;70343;51.530;5.050;2023-11-22T04:25:36;102916.31;;;2.63;100.00
80892;BME280;70343;51.530;5.050;2023-11-22T04:28:02;102915.50;;;2.62;100.00
80892;BME280;70343;51.530;5.050;2023-11-22T04:30:28;102903.78;;;2.57;100.00
80892;BME280;70343;51.530;5.050;2023-11-22T04:32:54;102927.72;;;2.59;100.00
80892;BME280;70343;51.530;5.050;2023-11-22T04:35:19;102925.28;;;2.56;100.00
80892;BME280;70343;51.530;5.050;2023-11-22T04:37:45;102925.28;;;2.56;100.00
80892;BME280;70343;51.530;5.050;2023-11-22T04:40:12;102929.53;;;2.57;100.00
80892;BME280;70343;51.530;5.050;2023-11-22T04:42:39;102926.13;;;2.56;100.00
80892;BME280;70343;51.530;5.050;2023-11-22T04:45:05;102927.81;;;2.57;100.00
80892;BME280;70343;51.530;5.050;2023-11-22T04:47:32;102938.16;;;2.56;100.00
80892;BME280;70343;51.530;5.050;2023-11-22T04:49:57;102939.09;;;2.55;100.00
80892;BME280;70343;51.530;5.050;2023-11-22T04:52:23;102940.09;;;2.52;100.00
80892;BME280;70343;51.530;5.050;2023-11-22T04:54:48;102943.31;;;2.56;100.00
80892;BME280;70343;51.530;5.050;2023-11-22T04:57:14;102950.16;;;2.57;100.00
80892;BME280;70343;51.530;5.050;2023-11-22T04:59:40;102945.66;;;2.60;100.00
80892;BME280;70343;51.530;5.050;2023-11-22T05:02:06;102946.47;;;2.61;100.00
80892;BME280;70343;51.530;5.050;2023-11-22T05:04:32;102954.56;;;2.55;100.00
80892;BME280;70343;51.530;5.050;2023-11-22T05:06:58;102950.16;;;2.57;100.00
80892;BME280;70343;51.530;5.050;2023-11-22T05:09:23;102944.06;;;2.58;100.00
80892;BME280;70343;51.530;5.050;2023-11-22T05:11:49;102941.06;;;2.65;100.00
80892;BME280;70343;51.530;5.050;2023-11-22T05:14:15;102941.47;;;2.73;100.00
80892;BME280;70343;51.530;5.050;2023-11-22T05:16:40;102948.72;;;2.67;100.00
80892;BME280;70343;51.530;5.050;2023-11-22T05:19:06;102940.41;;;2.62;100.00
80892;BME280;70343;51.530;5.050;2023-11-22T05:21:32;102940.81;;;2.70;100.00
80892;BME280;70343;51.530;5.050;2023-11-22T05:23:58;102934.81;;;2.69;100.00
80892;BME280;70343;51.530;5.050;2023-11-22T05:26:24;102928.03;;;2.68;100.00
80892;BME280;70343;51.530;5.050;2023-11-22T05:28:49;102934.91;;;2.68;100.00
80892;BME280;70343;51.530;5.050;2023-11-22T05:31:15;102936.41;;;2.72;100.00
80892;BME280;70343;51.530;5.050;2023-11-22T05:33:41;102929.22;;;2.77;100.00
80892;BME280;70343;51.530;5.050;2023-11-22T05:36:07;102934.00;;;2.69;100.00
80892;BME280;70343;51.530;5.050;2023-11-22T05:38:33;102936.41;;;2.72;100.00
80892;BME280;70343;51.530;5.050;2023-11-22T05:41:00;102940.06;;;2.68;100.00
80892;BME280;70343;51.530;5.050;2023-11-22T05:43:26;102931.25;;;2.72;100.00
80892;BME280;70343;51.530;5.050;2023-11-22T05:45:55;102934.38;;;2.77;100.00
80892;BME280;70343;51.530;5.050;2023-11-22T05:48:21;102930.91;;;2.78;100.00
80892;BME280;70343;51.530;5.050;2023-11-22T05:50:47;102944.69;;;2.77;100.00
80892;BME280;70343;51.530;5.050;2023-11-22T05:53:13;102956.66;;;2.78;100.00
80892;BME280;70343;51.530;5.050;2023-11-22T05:55:45;102957.56;;;2.77;100.00
80892;BME280;70343;51.530;5.050;2023-11-22T05:58:13;102965.47;;;2.74;100.00
80892;BME280;70343;51.530;5.050;2023-11-22T06:00:45;102972.13;;;2.78;100.00
80892;BME280;70343;51.530;5.050;2023-11-22T06:03:11;102966.03;;;2.79;100.00
80892;BME280;70343;51.530;5.050;2023-11-22T06:05:38;102963.47;;;2.79;100.00
80892;BME280;70343;51.530;5.050;2023-11-22T06:08:04;102972.69;;;2.83;100.00
80892;BME280;70343;51.530;5.050;2023-11-22T06:10:29;102958.91;;;2.84;100.00
80892;BME280;70343;51.530;5.050;2023-11-22T06:12:55;102963.22;;;2.84;100.00
80892;BME280;70343;51.530;5.050;2023-11-22T06:15:20;102982.91;;;2.85;100.00
80892;BME280;70343;51.530;5.050;2023-11-22T06:17:47;102982.81;;;2.86;100.00
80892;BME280;70343;51.530;5.050;2023-11-22T06:20:16;102978.56;;;2.85;100.00
80892;BME280;70343;51.530;5.050;2023-11-22T06:22:42;102982.06;;;2.84;100.00
80892;BME280;70343;51.530;5.050;2023-11-22T06:25:11;102980.41;;;2.83;100.00
80892;BME280;70343;51.530;5.050;2023-11-22T06:27:38;102978.56;;;2.85;100.00
80892;BME280;70343;51.530;5.050;2023-11-22T06:30:04;102990.38;;;2.89;100.00
80892;BME280;70343;51.530;5.050;2023-11-22T06:32:31;102989.56;;;2.89;100.00
80892;BME280;70343;51.530;5.050;2023-11-22T06:34:57;102987.03;;;2.87;100.00
80892;BME280;70343;51.530;5.050;2023-11-22T06:37:22;102982.00;;;2.86;100.00
80892;BME280;70343;51.530;5.050;2023-11-22T06:39:48;102995.06;;;2.83;100.00
80892;BME280;70343;51.530;5.050;2023-11-22T06:42:13;103011.81;;;2.90;100.00
80892;BME280;70343;51.530;5.050;2023-11-22T06:44:39;103009.25;;;2.90;100.00
80892;BME280;70343;51.530;5.050;2023-11-22T06:47:07;102998.69;;;2.94;100.00
80892;BME280;70343;51.530;5.050;2023-11-22T06:49:33;103006.41;;;2.94;100.00
80892;BME280;70343;51.530;5.050;2023-11-22T06:51:59;102990.97;;;2.94;100.00
80892;BME280;70343;51.530;5.050;2023-11-22T06:54:25;102975.22;;;2.99;100.00
80892;BME280;70343;51.530;5.050;2023-11-22T06:56:50;102968.50;;;2.96;100.00
80892;BME280;70343;51.530;5.050;2023-11-22T06:59:17;102970.16;;;2.97;100.00
80892;BME280;70343;51.530;5.050;2023-11-22T07:01:42;102970.81;;;3.01;100.00
80892;BME280;70343;51.530;5.050;2023-11-22T07:04:08;102968.31;;;2.99;100.00
80892;BME280;70343;51.530;5.050;2023-11-22T07:06:34;102966.38;;;3.03;100.00
80892;BME280;70343;51.530;5.050;2023-11-22T07:09:01;102959.50;;;3.03;100.00
80892;BME280;70343;51.530;5.050;2023-11-22T07:11:27;102966.13;;;3.07;100.00
80892;BME280;70343;51.530;5.050;2023-11-22T07:13:56;102972.94;;;3.08;100.00
80892;BME280;70343;51.530;5.050;2023-11-22T07:16:23;102974.72;;;3.08;100.00
80892;BME280;70343;51.530;5.050;2023-11-22T07:18:49;102981.50;;;3.09;100.00
80892;BME280;70343;51.530;5.050;2023-11-22T07:21:15;102975.34;;;3.11;100.00
80892;BME280;70343;51.530;5.050;2023-11-22T07:23:42;102982.16;;;3.12;100.00
80892;BME280;70343;51.530;5.050;2023-11-22T07:26:07;102979.50;;;3.14;100.00
80892;BME280;70343;51.530;5.050;2023-11-22T07:28:33;102990.38;;;3.19;100.00
80892;BME280;70343;51.530;5.050;2023-11-22T07:31:01;102991.03;;;3.22;100.00
80892;BME280;70343;51.530;5.050;2023-11-22T07:33:27;102991.03;;;3.22;100.00
80892;BME280;70343;51.530;5.050;2023-11-22T07:35:52;103001.16;;;3.25;100.00
80892;BME280;70343;51.530;5.050;2023-11-22T07:38:19;102996.81;;;3.26;100.00
80892;BME280;70343;51.530;5.050;2023-11-22T07:40:45;102993.09;;;3.31;100.00
80892;BME280;70343;51.530;5.050;2023-11-22T07:43:10;102986.53;;;3.40;100.00
80892;BME280;70343;51.530;5.050;2023-11-22T07:45:36;102990.84;;;3.39;100.00
80892;BME280;70343;51.530;5.050;2023-11-22T07:48:06;102997.66;;;3.26;100.00
80892;BME280;70343;51.530;5.050;2023-11-22T07:50:31;102997.75;;;3.25;100.00
80892;BME280;70343;51.530;5.050;2023-11-22T07:52:57;103005.69;;;3.22;100.00
80892;BME280;70343;51.530;5.050;2023-11-22T07:55:23;103005.88;;;3.03;100.00
80892;BME280;70343;51.530;5.050;2023-11-22T07:57:49;103023.91;;;3.03;100.00
80892;BME280;70343;51.530;5.050;2023-11-22T08:00:17;103028.72;;;3.09;100.00
80892;BME280;70343;51.530;5.050;2023-11-22T08:02:45;103030.91;;;3.01;100.00
80892;BME280;70343;51.530;5.050;2023-11-22T08:05:11;103035.09;;;2.88;100.00
80892;BME280;70343;51.530;5.050;2023-11-22T08:07:43;103041.97;;;3.03;100.00
80892;BME280;70343;51.530;5.050;2023-11-22T08:10:11;103037.38;;;3.08;100.00
80892;BME280;70343;51.530;5.050;2023-11-22T08:12:46;103036.97;;;3.16;100.00
80892;BME280;70343;51.530;5.050;2023-11-22T08:15:14;103043.75;;;3.17;100.00
80892;BME280;70343;51.530;5.050;2023-11-22T08:17:42;103039.75;;;3.27;100.00
80892;BME280;70343;51.530;5.050;2023-11-22T08:20:11;103035.03;;;3.19;100.00
80892;BME280;70343;51.530;5.050;2023-11-22T08:22:39;103041.69;;;3.23;100.00
80892;BME280;70343;51.530;5.050;2023-11-22T08:25:08;103052.41;;;3.45;100.00
80892;BME280;70343;51.530;5.050;2023-11-22T08:27:34;103047.22;;;3.45;100.00
80892;BME280;70343;51.530;5.050;2023-11-22T08:30:00;103051.88;;;3.54;100.00
80892;BME280;70343;51.530;5.050;2023-11-22T08:32:33;103050.84;;;3.43;100.00
80892;BME280;70343;51.530;5.050;2023-11-22T08:34:58;103041.47;;;3.26;100.00
80892;BME280;70343;51.530;5.050;2023-11-22T08:37:24;103048.47;;;3.24;100.00
80892;BME280;70343;51.530;5.050;2023-11-22T08:39:50;103051.75;;;3.12;100.00
80892;BME280;70343;51.530;5.050;2023-11-22T08:42:16;103061.03;;;3.30;100.00
80892;BME280;70343;51.530;5.050;2023-11-22T08:44:41;103064.75;;;3.40;100.00
80892;BME280;70343;51.530;5.050;2023-11-22T08:47:07;103069.00;;;3.55;100.00
80892;BME280;70343;51.530;5.050;2023-11-22T08:49:33;103063.06;;;3.39;100.00
80892;BME280;70343;51.530;5.050;2023-11-22T08:51:59;103063.69;;;3.58;100.00
80892;BME280;70343;51.530;5.050;2023-11-22T08:54:25;103065.88;;;3.50;100.00
80892;BME280;70343;51.530;5.050;2023-11-22T08:56:54;103080.41;;;3.51;100.00
80892;BME280;70343;51.530;5.050;2023-11-22T08:59:22;103080.75;;;3.45;100.00
80892;BME280;70343;51.530;5.050;2023-11-22T09:01:48;103082.03;;;3.38;100.00
80892;BME280;70343;51.530;5.050;2023-11-22T09:04:13;103075.59;;;3.31;100.00
80892;BME280;70343;51.530;5.050;2023-11-22T09:06:40;103080.41;;;3.51;100.00
80892;BME280;70343;51.530;5.050;2023-11-22T09:09:06;103082.94;;;3.67;100.00
80892;BME280;70343;51.530;5.050;2023-11-22T09:11:31;103079.09;;;3.74;100.00
80892;BME280;70343;51.530;5.050;2023-11-22T09:14:00;103077.78;;;3.67;100.00
80892;BME280;70343;51.530;5.050;2023-11-22T09:16:35;103077.78;;;3.53;100.00
80892;BME280;70343;51.530;5.050;2023-11-22T09:19:01;103075.09;;;3.54;100.00
80892;BME280;70343;51.530;5.050;2023-11-22T09:21:26;103081.25;;;3.52;100.00
80892;BME280;70343;51.530;5.050;2023-11-22T09:23:52;103085.31;;;3.56;100.00
80892;BME280;70343;51.530;5.050;2023-11-22T09:26:17;103083.38;;;3.59;100.00
80892;BME280;70343;51.530;5.050;2023-11-22T09:28:44;103097.22;;;3.73;100.00
80892;BME280;70343;51.530;5.050;2023-11-22T09:31:10;103096.69;;;3.68;100.00
80892;BME280;70343;51.530;5.050;2023-11-22T09:33:38;103089.53;;;3.57;100.00
80892;BME280;70343;51.530;5.050;2023-11-22T09:36:04;103083.28;;;3.61;100.00
80892;BME280;70343;51.530;5.050;2023-11-22T09:38:29;103093.19;;;3.69;100.00
80892;BME280;70343;51.530;5.050;2023-11-22T09:40:55;103086.00;;;3.74;100.00
80892;BME280;70343;51.530;5.050;2023-11-22T09:43:22;103086.19;;;3.85;100.00
80892;BME280;70343;51.530;5.050;2023-11-22T09:45:50;103087.66;;;3.89;100.00
80892;BME280;70343;51.530;5.050;2023-11-22T09:48:20;103093.75;;;3.88;100.00
80892;BME280;70343;51.530;5.050;2023-11-22T09:51:04;103100.41;;;4.06;100.00
80892;BME280;70343;51.530;5.050;2023-11-22T09:56:02;103100.78;;;4.14;100.00
80892;BME280;70343;51.530;5.050;2023-11-22T09:58:33;103093.59;;;4.19;100.00
80892;BME280;70343;51.530;5.050;2023-11-22T10:01:02;103091.94;;;4.32;100.00
80892;BME280;70343;51.530;5.050;2023-11-22T10:03:33;103087.03;;;4.27;100.00
80892;BME280;70343;51.530;5.050;2023-11-22T10:05:59;103081.50;;;4.19;100.00
80892;BME280;70343;51.530;5.050;2023-11-22T10:08:28;103086.75;;;4.18;100.00
80892;BME280;70343;51.530;5.050;2023-11-22T10:10:55;103088.22;;;4.36;100.00
80892;BME280;70343;51.530;5.050;2023-11-22T10:13:21;103093.03;;;4.14;100.00
80892;BME280;70343;51.530;5.050;2023-11-22T10:15:47;103100.56;;;4.45;100.00
80892;BME280;70343;51.530;5.050;2023-11-22T10:18:16;103099.03;;;4.14;100.00
80892;BME280;70343;51.530;5.050;2023-11-22T10:20:43;103099.03;;;4.14;100.00
80892;BME280;70343;51.530;5.050;2023-11-22T10:23:15;103094.34;;;4.21;100.00
80892;BME280;70343;51.530;5.050;2023-11-22T10:25:48;103106.94;;;4.25;100.00
80892;BME280;70343;51.530;5.050;2023-11-22T10:28:21;103101.31;;;4.47;100.00
80892;BME280;70343;51.530;5.050;2023-11-22T10:30:48;103100.97;;;4.25;100.00
80892;BME280;70343;51.530;5.050;2023-11-22T10:33:15;103093.41;;;4.36;100.00
80892;BME280;70343;51.530;5.050;2023-11-22T10:35:45;103087.66;;;4.45;100.00
80892;BME280;70343;51.530;5.050;2023-11-22T10:38:18;103072.94;;;4.19;100.00
80892;BME280;70343;51.530;5.050;2023-11-22T10:40:44;103073.19;;;4.42;100.00
80892;BME280;70343;51.530;5.050;2023-11-22T10:43:14;103067.56;;;4.22;100.00
80892;BME280;70343;51.530;5.050;2023-11-22T10:45:41;103062.50;;;4.20;100.00
80892;BME280;70343;51.530;5.050;2023-11-22T10:48:15;103059.00;;;4.21;100.00
80892;BME280;70343;51.530;5.050;2023-11-22T10:50:44;103057.50;;;4.31;100.00
80892;BME280;70343;51.530;5.050;2023-11-22T10:53:15;103047.06;;;4.47;100.00
80892;BME280;70343;51.530;5.050;2023-11-22T10:55:45;103050.59;;;4.46;100.00
80892;BME280;70343;51.530;5.050;2023-11-22T10:58:15;103058.63;;;4.27;100.00
80892;BME280;70343;51.530;5.050;2023-11-22T11:00:41;103051.34;;;4.20;100.00
80892;BME280;70343;51.530;5.050;2023-11-22T11:03:14;103055.97;;;4.29;100.00
80892;BME280;70343;51.530;5.050;2023-11-22T11:05:49;103040.53;;;4.41;100.00
80892;BME280;70343;51.530;5.050;2023-11-22T11:08:16;103033.53;;;4.29;100.00
80892;BME280;70343;51.530;5.050;2023-11-22T11:10:44;103030.28;;;4.54;100.00
80892;BME280;70343;51.530;5.050;2023-11-22T11:13:14;103034.13;;;4.61;100.00
80892;BME280;70343;51.530;5.050;2023-11-22T11:15:41;103024.03;;;4.44;100.00
80892;BME280;70343;51.530;5.050;2023-11-22T11:18:13;103023.06;;;4.59;100.00
80892;BME280;70343;51.530;5.050;2023-11-22T11:23:24;103029.09;;;4.72;100.00
80892;BME280;70343;51.530;5.050;2023-11-22T11:25:54;103026.56;;;4.58;100.00
80892;BME280;70343;51.530;5.050;2023-11-22T11:28:20;103023.19;;;4.70;100.00
80892;BME280;70343;51.530;5.050;2023-11-22T11:30:47;103025.00;;;4.82;100.00
80892;BME280;70343;51.530;5.050;2023-11-22T11:33:19;103020.59;;;4.70;100.00
80892;BME280;70343;51.530;5.050;2023-11-22T11:35:49;103008.03;;;4.51;100.00
80892;BME280;70343;51.530;5.050;2023-11-22T11:38:19;102996.72;;;4.67;100.00
80892;BME280;70343;51.530;5.050;2023-11-22T11:40:47;102991.00;;;4.88;100.00
80892;BME280;70343;51.530;5.050;2023-11-22T11:43:13;102984.38;;;4.84;100.00
80892;BME280;70343;51.530;5.050;2023-11-22T11:45:40;102973.66;;;4.90;100.00
80892;BME280;70343;51.530;5.050;2023-11-22T11:48:15;102971.94;;;4.64;100.00
80892;BME280;70343;51.530;5.050;2023-11-22T11:50:41;102973.75;;;4.89;100.00
80892;BME280;70343;51.530;5.050;2023-11-22T11:53:08;102976.22;;;4.90;100.00
80892;BME280;70343;51.530;5.050;2023-11-22T11:55:33;102959.59;;;4.82;100.00
80892;BME280;70343;51.530;5.050;2023-11-22T11:58:07;102948.06;;;4.73;100.00
80892;BME280;70343;51.530;5.050;2023-11-22T12:00:36;102946.00;;;4.78;100.00
80892;BME280;70343;51.530;5.050;2023-11-22T12:03:06;102958.19;;;4.76;100.00
80892;BME280;70343;51.530;5.050;2023-11-22T12:05:32;102954.50;;;4.80;100.00
80892;BME280;70343;51.530;5.050;2023-11-22T12:07:58;102957.00;;;4.82;100.00
80892;BME280;70343;51.530;5.050;2023-11-22T12:10:23;102954.59;;;4.79;100.00
80892;BME280;70343;51.530;5.050;2023-11-22T12:12:49;102956.13;;;4.69;100.00
80892;BME280;70343;51.530;5.050;2023-11-22T12:15:15;102963.47;;;4.75;100.00
80892;BME280;70343;51.530;5.050;2023-11-22T12:17:41;102963.97;;;4.67;100.00
80892;BME280;70343;51.530;5.050;2023-11-22T12:20:15;102956.13;;;4.69;100.00
80892;BME280;70343;51.530;5.050;2023-11-22T12:22:43;102948.97;;;4.60;100.00
80892;BME280;70343;51.530;5.050;2023-11-22T12:25:10;102947.84;;;4.76;100.00
80892;BME280;70343;51.530;5.050;2023-11-22T12:27:43;102941.31;;;4.58;100.00
80892;BME280;70343;51.530;5.050;2023-11-22T12:30:28;102950.53;;;4.62;100.00
80892;BME280;70343;51.530;5.050;2023-11-22T12:32:55;102961.78;;;4.61;100.00
80892;BME280;70343;51.530;5.050;2023-11-22T12:35:22;102954.25;;;4.58;100.00
80892;BME280;70343;51.530;5.050;2023-11-22T12:37:48;102960.88;;;4.62;100.00
80892;BME280;70343;51.530;5.050;2023-11-22T12:40:14;102957.22;;;4.65;100.00
80892;BME280;70343;51.530;5.050;2023-11-22T12:42:50;102961.38;;;4.67;100.00
80892;BME280;70343;51.530;5.050;2023-11-22T12:45:23;102961.31;;;4.81;100.00
80892;BME280;70343;51.530;5.050;2023-11-22T12:47:52;102961.91;;;4.72;100.00
80892;BME280;70343;51.530;5.050;2023-11-22T12:50:37;102947.06;;;4.76;100.00
80892;BME280;70343;51.530;5.050;2023-11-22T12:53:14;102953.47;;;4.83;100.00
80892;BME280;70343;51.530;5.050;2023-11-22T12:55:44;102947.91;;;4.89;100.00